aviador You're here:

KFEW Decoded Metar

in
Report Time2018-07-16 07:58:00
UTC Time2018-07-16 08:29:46
Flight Rules mvfr MVFR
Wind190° at 04 kt
W.Rank190° ranks 10
Current wind is below 190° avg. (9.0)
Visibility9999 m
Phenomena:N/A
Clouds:Overcast 016 Hf
Expected CloudBase > 400 ft AGL from Temp-Dew spread
Ceiling1,600 ft
Temp16°C
Dew Point15°C (94% RH)
QNH1027 hPa
Raw Report
METAR KFEW 160758Z AUTO 19004KT 10SM OVC016 16/15 A3032 RMK AO2 SLP210
T01550147 $=

Extra information for KFEW:More info

Social comments